Airport Name : Pantelleria

Other Name : Pantelleria

ICAO : LICG

IATA : PNL

FAA :

Latitude : 36.816519

Longitude : 11.968864

Country : Italy

Local Date and Time : 15 Jul 2024 16:31

 

TAF (Terminal Aerodrome Forecast)

TAF LICG 151400Z 1515/1524 34010KT CAVOK

 

METAR (METeorological Aerodrome Report)

LICG 151350Z 35007KT CAVOK 27/23 Q1014

LICG 151250Z 33007KT CAVOK 27/23 Q1014

LICG 151150Z 32007KT CAVOK 27/22 Q1014

LICG 151050Z 32007KT CAVOK 27/22 Q1014